createdAt,value
2023-04-07T00:01:13.766Z,26.55
2023-04-07T00:03:45.835Z,26.55
2023-04-07T00:06:23.612Z,26.58
2023-04-07T00:08:59.506Z,26.72
2023-04-07T00:11:32.362Z,26.57
2023-04-07T00:14:06.539Z,26.18
2023-04-07T00:16:39.678Z,26.37
2023-04-07T00:19:16.916Z,26.30
2023-04-07T00:21:54.489Z,26.74
2023-04-07T00:24:34.273Z,26.67
2023-04-07T00:27:05.949Z,26.68
2023-04-07T00:29:36.444Z,26.45
2023-04-07T00:32:14.500Z,26.53
2023-04-07T00:34:53.417Z,26.54
2023-04-07T00:37:25.662Z,26.54
2023-04-07T00:39:53.102Z,26.68
2023-04-07T00:42:31.500Z,26.85
2023-04-07T00:45:10.198Z,26.68
2023-04-07T00:47:54.199Z,26.78
2023-04-07T00:50:29.812Z,26.34
2023-04-07T00:53:02.711Z,26.80
2023-04-07T00:55:37.739Z,26.98
2023-04-07T00:58:24.830Z,26.81
2023-04-07T01:01:12.475Z,26.87
2023-04-07T01:03:52.020Z,26.88
2023-04-07T01:06:29.786Z,26.85
2023-04-07T01:09:26.613Z,26.81
2023-04-07T01:12:01.313Z,26.68
2023-04-07T01:14:51.305Z,26.45
2023-04-07T01:18:01.679Z,26.58
2023-04-07T01:20:40.962Z,26.41
2023-04-07T01:23:36.046Z,26.41
2023-04-07T01:26:23.299Z,26.28
2023-04-07T01:29:21.679Z,26.38
2023-04-07T01:31:58.425Z,26.53
2023-04-07T01:34:38.617Z,26.46
2023-04-07T01:37:13.404Z,26.30
2023-04-07T01:39:46.684Z,26.25
2023-04-07T01:42:21.680Z,26.26
2023-04-07T01:44:53.109Z,26.08
2023-04-07T01:47:30.753Z,26.12
2023-04-07T01:50:05.624Z,25.96
2023-04-07T01:52:38.434Z,25.89
2023-04-07T01:55:15.669Z,26.16
2023-04-07T01:58:00.641Z,26.07
2023-04-07T02:00:42.039Z,26.04
2023-04-07T02:03:27.539Z,25.84
2023-04-07T02:06:06.800Z,25.99
2023-04-07T02:08:52.371Z,26.12
2023-04-07T02:11:32.041Z,25.93
2023-04-07T02:14:10.911Z,26.02
2023-04-07T02:17:01.799Z,25.96
2023-04-07T02:19:35.981Z,25.79
2023-04-07T02:22:11.194Z,25.99
2023-04-07T02:24:47.268Z,25.99
2023-04-07T02:27:31.231Z,26.07
2023-04-07T02:30:01.715Z,25.92
2023-04-07T02:32:35.950Z,25.97
2023-04-07T02:35:11.714Z,25.93
2023-04-07T02:37:41.807Z,25.86
2023-04-07T02:40:15.626Z,26.13
2023-04-07T02:42:52.837Z,26.03
2023-04-07T02:45:28.981Z,26.01
2023-04-07T02:48:02.577Z,25.68
2023-04-07T02:50:35.561Z,25.74
2023-04-07T02:53:12.094Z,25.81
2023-04-07T02:55:44.959Z,25.81
2023-04-07T02:58:18.867Z,25.81
2023-04-07T03:01:01.507Z,26.12
2023-04-07T03:03:34.831Z,26.30
2023-04-07T03:06:11.799Z,26.06
2023-04-07T03:08:49.953Z,26.57
2023-04-07T03:11:23.572Z,26.26
2023-04-07T03:13:59.621Z,26.24
2023-04-07T03:16:31.661Z,26.59
2023-04-07T03:19:17.727Z,26.78
2023-04-07T03:21:54.726Z,26.35
2023-04-07T03:24:33.180Z,26.69
2023-04-07T03:27:09.712Z,26.61
2023-04-07T03:29:44.869Z,26.65
2023-04-07T03:32:20.989Z,26.80
2023-04-07T03:34:59.664Z,26.66
2023-04-07T03:37:30.252Z,26.79
2023-04-07T03:40:03.264Z,26.59
2023-04-07T03:42:42.929Z,26.53
2023-04-07T03:45:13.924Z,26.74
2023-04-07T03:47:49.419Z,26.74
2023-04-07T03:50:17.714Z,26.63
2023-04-07T03:53:04.144Z,26.55
2023-04-07T03:55:36.836Z,26.50
2023-04-07T03:58:17.621Z,26.67
2023-04-07T04:00:53.921Z,26.85
2023-04-07T04:03:24.160Z,26.82
2023-04-07T04:06:09.126Z,26.66
2023-04-07T04:08:46.267Z,27.05
2023-04-07T04:11:19.850Z,26.80
2023-04-07T04:13:56.993Z,26.78
2023-04-07T04:16:29.505Z,26.67
2023-04-07T04:19:00.247Z,26.86
2023-04-07T04:21:40.771Z,26.79
2023-04-07T04:24:13.941Z,26.92
2023-04-07T04:26:44.684Z,26.51
2023-04-07T04:29:19.421Z,26.64
2023-04-07T04:31:54.185Z,26.80
2023-04-07T04:34:26.500Z,26.62
2023-04-07T04:37:00.213Z,26.71
2023-04-07T04:39:30.634Z,26.53
2023-04-07T04:42:15.400Z,26.90
2023-04-07T04:44:46.555Z,26.69
2023-04-07T04:47:24.366Z,26.81
2023-04-07T04:50:03.921Z,26.82
2023-04-07T04:52:45.652Z,26.64
2023-04-07T04:55:22.387Z,26.80
2023-04-07T04:58:01.111Z,26.85
2023-04-07T05:00:43.895Z,27.14
2023-04-07T05:03:22.006Z,26.78
2023-04-07T05:05:59.077Z,26.49
2023-04-07T05:08:38.103Z,26.51
2023-04-07T05:11:09.936Z,26.72
2023-04-07T05:13:44.255Z,26.77
2023-04-07T05:16:17.684Z,26.87
2023-04-07T05:18:53.688Z,26.63
2023-04-07T05:21:33.865Z,26.33
2023-04-07T05:24:09.494Z,26.96
2023-04-07T05:26:43.287Z,26.65
2023-04-07T05:29:11.636Z,26.79
2023-04-07T05:31:42.040Z,26.85
2023-04-07T05:34:13.722Z,26.98
2023-04-07T05:36:55.497Z,27.29
2023-04-07T05:39:37.994Z,26.37
2023-04-07T05:42:22.631Z,26.93
2023-04-07T05:45:00.858Z,26.91
2023-04-07T05:47:37.895Z,26.74
2023-04-07T05:50:14.875Z,26.76
2023-04-07T05:52:55.674Z,26.72
2023-04-07T05:55:31.898Z,26.43
2023-04-07T05:58:09.356Z,26.48
2023-04-07T06:00:40.206Z,26.68
2023-04-07T06:03:18.372Z,26.73
2023-04-07T06:06:10.535Z,26.65
2023-04-07T06:08:43.707Z,26.32
2023-04-07T06:11:18.344Z,26.62
2023-04-07T06:13:56.390Z,26.20
2023-04-07T06:16:33.275Z,26.39
2023-04-07T06:19:08.149Z,26.28
2023-04-07T06:21:46.595Z,26.15
2023-04-07T06:24:27.041Z,26.06
2023-04-07T06:27:02.715Z,26.24
2023-04-07T06:29:38.973Z,26.09
2023-04-07T06:32:09.369Z,26.23
2023-04-07T06:34:50.022Z,26.35
2023-04-07T06:37:25.032Z,25.84
2023-04-07T06:40:00.304Z,26.31
2023-04-07T06:42:36.964Z,26.13
2023-04-07T06:45:32.061Z,26.47
2023-04-07T06:48:12.016Z,26.53
2023-04-07T06:50:46.163Z,26.66
2023-04-07T06:53:20.066Z,26.19
2023-04-07T06:55:53.154Z,25.87
2023-04-07T06:58:23.050Z,25.91
2023-04-07T07:00:55.050Z,25.18
2023-04-07T07:03:32.472Z,24.38
2023-04-07T07:06:04.810Z,24.04
2023-04-07T07:08:38.699Z,23.31
2023-04-07T07:11:17.082Z,22.31
2023-04-07T07:13:52.737Z,22.06
2023-04-07T07:16:30.616Z,21.09
2023-04-07T07:19:01.662Z,20.83
2023-04-07T07:21:34.768Z,20.28
2023-04-07T07:24:05.533Z,20.61
2023-04-07T07:26:43.486Z,20.00
2023-04-07T07:29:22.823Z,20.09
2023-04-07T07:31:58.327Z,20.27
2023-04-07T07:34:26.410Z,20.29
2023-04-07T07:37:03.681Z,19.88
2023-04-07T07:39:36.804Z,19.61
2023-04-07T07:42:07.744Z,20.29
2023-04-07T07:44:46.741Z,19.68
2023-04-07T07:47:22.616Z,20.08
2023-04-07T07:50:05.152Z,20.86
2023-04-07T07:52:39.684Z,22.33
2023-04-07T07:55:09.612Z,23.19
2023-04-07T07:57:37.849Z,24.04
2023-04-07T08:00:09.477Z,24.54
2023-04-07T08:02:49.145Z,23.97
2023-04-07T08:05:19.643Z,24.32
2023-04-07T08:07:52.150Z,24.31
2023-04-07T08:10:27.580Z,24.23
2023-04-07T08:13:01.356Z,24.90
2023-04-07T08:15:34.537Z,24.84
2023-04-07T08:18:09.851Z,24.72
2023-04-07T08:20:41.031Z,24.55
2023-04-07T08:23:12.554Z,23.74
2023-04-07T08:25:51.057Z,24.27
2023-04-07T08:28:29.518Z,24.10
2023-04-07T08:31:07.340Z,24.15
2023-04-07T08:33:43.637Z,24.75
2023-04-07T08:36:14.685Z,24.79
2023-04-07T08:38:55.984Z,25.48
2023-04-07T08:41:45.452Z,25.67
2023-04-07T08:44:15.443Z,25.71
2023-04-07T08:46:47.955Z,25.58
2023-04-07T08:49:18.761Z,25.72
2023-04-07T08:51:50.918Z,25.38
2023-04-07T08:54:24.528Z,24.83
2023-04-07T08:56:52.992Z,25.00
2023-04-07T08:59:29.369Z,24.55
2023-04-07T09:01:58.370Z,23.47
2023-04-07T09:04:29.568Z,24.18
2023-04-07T09:06:58.244Z,24.58
2023-04-07T09:09:32.576Z,25.35
2023-04-07T09:12:06.143Z,24.91
2023-04-07T09:14:40.530Z,25.17
2023-04-07T09:17:10.940Z,24.86
2023-04-07T09:19:38.923Z,24.54
2023-04-07T09:22:12.594Z,24.75
2023-04-07T09:24:44.418Z,24.21
2023-04-07T09:27:28.905Z,24.99
2023-04-07T09:30:17.198Z,24.54
2023-04-07T09:32:50.341Z,23.97
2023-04-07T09:35:18.237Z,24.01
2023-04-07T09:38:11.621Z,24.34
2023-04-07T09:40:52.781Z,23.72
2023-04-07T09:43:23.316Z,23.70
2023-04-07T09:46:16.320Z,24.04
2023-04-07T09:48:50.818Z,23.68
2023-04-07T09:51:28.309Z,23.86
2023-04-07T09:54:11.807Z,24.33
2023-04-07T09:56:54.132Z,23.81
2023-04-07T09:59:31.664Z,23.31
2023-04-07T10:02:10.479Z,23.13
2023-04-07T10:04:42.516Z,23.28
2023-04-07T10:07:22.293Z,23.16
2023-04-07T10:10:00.167Z,23.13
2023-04-07T10:12:43.037Z,23.81
2023-04-07T10:15:17.012Z,23.74
2023-04-07T10:17:54.179Z,23.46
2023-04-07T10:20:32.270Z,24.32
2023-04-07T10:23:16.463Z,23.74
2023-04-07T10:25:54.246Z,23.73
2023-04-07T10:28:33.637Z,23.61
2023-04-07T10:31:13.370Z,23.15
2023-04-07T10:34:13.958Z,23.48
2023-04-07T10:37:10.257Z,23.26
2023-04-07T10:39:49.369Z,23.46
2023-04-07T10:42:47.695Z,23.77
2023-04-07T10:45:58.443Z,23.68
2023-04-07T10:48:35.396Z,23.46
2023-04-07T10:51:15.412Z,23.88
2023-04-07T10:54:29.058Z,24.03
2023-04-07T10:57:07.999Z,24.12
2023-04-07T11:00:00.011Z,23.88
2023-04-07T11:02:38.842Z,23.95
2023-04-07T11:05:24.068Z,24.06
2023-04-07T11:08:05.220Z,24.04
2023-04-07T11:10:39.545Z,24.22
2023-04-07T11:13:15.989Z,24.29
2023-04-07T11:15:50.727Z,24.21
2023-04-07T11:18:20.837Z,24.10
2023-04-07T11:21:03.183Z,24.40
2023-04-07T11:23:30.844Z,24.43
2023-04-07T11:26:03.098Z,24.57
2023-04-07T11:28:33.576Z,24.29
2023-04-07T11:31:05.155Z,24.48
2023-04-07T11:33:37.250Z,24.18
2023-04-07T11:36:09.792Z,24.30
2023-04-07T11:38:47.153Z,24.47
2023-04-07T11:41:16.000Z,24.61
2023-04-07T11:43:51.063Z,24.62
2023-04-07T11:46:30.475Z,24.64
2023-04-07T11:49:18.858Z,24.45
2023-04-07T11:52:03.310Z,24.60
2023-04-07T11:54:49.961Z,24.93
2023-04-07T11:57:26.190Z,24.79
2023-04-07T12:00:15.898Z,24.93
2023-04-07T12:02:50.110Z,24.64
2023-04-07T12:05:27.093Z,24.76
2023-04-07T12:07:55.675Z,24.60
2023-04-07T12:10:26.469Z,24.56
2023-04-07T12:12:59.441Z,24.88
2023-04-07T12:15:39.007Z,24.90
2023-04-07T12:18:17.451Z,24.72
2023-04-07T12:20:56.843Z,24.68
2023-04-07T12:23:30.722Z,24.73
2023-04-07T12:26:04.027Z,24.90
2023-04-07T12:28:43.359Z,24.93
2023-04-07T12:31:20.665Z,25.19
2023-04-07T12:34:06.792Z,24.91
2023-04-07T12:36:40.346Z,25.10
2023-04-07T12:39:24.892Z,24.79
2023-04-07T12:41:54.197Z,24.93
2023-04-07T12:44:30.555Z,25.15
2023-04-07T12:47:11.104Z,25.21
2023-04-07T12:49:49.700Z,25.27
2023-04-07T12:52:33.871Z,25.59
2023-04-07T12:55:16.892Z,25.70
2023-04-07T12:57:56.012Z,25.68
2023-04-07T13:00:39.166Z,25.61
2023-04-07T13:03:18.600Z,25.61
2023-04-07T13:05:52.783Z,25.26
2023-04-07T13:08:29.675Z,25.57
2023-04-07T13:11:07.709Z,25.86
2023-04-07T13:13:44.549Z,25.74
2023-04-07T13:16:25.047Z,25.79
2023-04-07T13:19:09.905Z,26.04
2023-04-07T13:21:47.288Z,26.10
2023-04-07T13:24:30.617Z,26.14
2023-04-07T13:27:08.963Z,26.40
2023-04-07T13:29:41.780Z,26.22
2023-04-07T13:32:18.640Z,26.33
2023-04-07T13:34:51.687Z,26.06
2023-04-07T13:37:24.936Z,26.17
2023-04-07T13:40:01.882Z,26.21
2023-04-07T13:42:37.803Z,26.26
2023-04-07T13:45:23.283Z,26.31
2023-04-07T13:47:57.662Z,26.22
2023-04-07T13:50:36.007Z,26.27
2023-04-07T13:53:04.093Z,26.30
2023-04-07T13:55:41.223Z,26.60
2023-04-07T13:58:20.944Z,26.72
2023-04-07T14:00:53.691Z,26.44
2023-04-07T14:03:26.435Z,26.47
2023-04-07T14:06:03.062Z,26.77
2023-04-07T14:08:38.704Z,27.00
2023-04-07T14:11:12.565Z,26.86
2023-04-07T14:13:49.406Z,26.67
2023-04-07T14:16:19.908Z,26.77
2023-04-07T14:18:49.462Z,26.84
2023-04-07T14:21:20.042Z,27.15
2023-04-07T14:23:58.804Z,27.30
2023-04-07T14:26:32.253Z,27.14
2023-04-07T14:29:15.026Z,27.25
2023-04-07T14:31:42.902Z,27.40
2023-04-07T14:34:22.401Z,27.17
2023-04-07T14:37:01.723Z,27.21
2023-04-07T14:39:37.804Z,27.30
2023-04-07T14:42:23.562Z,27.39
2023-04-07T14:44:53.308Z,27.25
2023-04-07T14:47:32.993Z,27.37
2023-04-07T14:50:08.727Z,27.30
2023-04-07T14:52:43.663Z,27.56
2023-04-07T14:55:12.117Z,27.46
2023-04-07T14:57:47.120Z,27.48
2023-04-07T15:00:25.448Z,27.54
2023-04-07T15:03:01.335Z,27.43
2023-04-07T15:05:38.861Z,27.60
2023-04-07T15:08:12.314Z,27.72
2023-04-07T15:10:45.742Z,27.61
2023-04-07T15:13:24.350Z,27.72
2023-04-07T15:15:55.435Z,27.64
2023-04-07T15:18:28.790Z,27.94
2023-04-07T15:21:06.765Z,27.85
2023-04-07T15:23:38.299Z,27.68
2023-04-07T15:26:11.971Z,27.66
2023-04-07T15:28:51.322Z,27.91
2023-04-07T15:31:28.765Z,27.75
2023-04-07T15:34:10.362Z,27.68
2023-04-07T15:36:48.984Z,27.48
2023-04-07T15:39:26.695Z,27.58
2023-04-07T15:42:05.903Z,27.26
2023-04-07T15:44:42.149Z,27.57
2023-04-07T15:47:22.486Z,27.30
2023-04-07T15:50:02.103Z,27.39
2023-04-07T15:52:34.447Z,27.15
2023-04-07T15:55:11.798Z,27.44
2023-04-07T15:57:56.688Z,27.29
2023-04-07T16:00:38.270Z,26.95
2023-04-07T16:03:16.252Z,27.15
2023-04-07T16:05:55.976Z,27.21
2023-04-07T16:08:29.292Z,27.13
2023-04-07T16:11:13.837Z,27.22
2023-04-07T16:13:51.193Z,27.38
2023-04-07T16:16:29.818Z,27.43
2023-04-07T16:19:04.252Z,27.27
2023-04-07T16:21:42.985Z,27.16
2023-04-07T16:24:21.752Z,27.05
2023-04-07T16:29:45.413Z,26.96
2023-04-07T16:32:27.705Z,26.70
2023-04-07T16:35:11.673Z,26.74
2023-04-07T16:37:50.442Z,27.07
2023-04-07T16:40:35.260Z,26.79
2023-04-07T16:43:13.032Z,26.82
2023-04-07T16:46:06.467Z,27.07
2023-04-07T16:48:52.690Z,26.89
2023-04-07T16:51:30.733Z,26.93
2023-04-07T16:54:17.574Z,26.78
2023-04-07T16:56:51.832Z,26.89
2023-04-07T16:59:37.918Z,26.99
2023-04-07T17:02:19.406Z,26.80
2023-04-07T17:04:55.843Z,26.79
2023-04-07T17:07:34.843Z,26.74
2023-04-07T17:10:14.582Z,26.81
2023-04-07T17:12:56.365Z,26.94
2023-04-07T17:15:31.747Z,26.98
2023-04-07T17:18:08.018Z,26.73
2023-04-07T17:20:46.748Z,26.82
2023-04-07T17:23:28.611Z,26.61
2023-04-07T17:26:07.964Z,27.04
2023-04-07T17:28:52.796Z,27.06
2023-04-07T17:31:35.851Z,26.88
2023-04-07T17:34:14.681Z,26.54
2023-04-07T17:36:51.387Z,26.88
2023-04-07T17:39:27.065Z,26.86
2023-04-07T17:42:05.317Z,26.85
2023-04-07T17:44:44.869Z,27.01
2023-04-07T17:47:28.434Z,27.05
2023-04-07T17:50:02.857Z,27.02
2023-04-07T17:52:47.116Z,26.84
2023-04-07T17:55:23.349Z,26.88
2023-04-07T17:58:09.880Z,26.84
2023-04-07T18:00:47.273Z,26.87
2023-04-07T18:03:34.245Z,26.94
2023-04-07T18:06:08.515Z,26.95
2023-04-07T18:09:00.926Z,26.90
2023-04-07T18:11:38.975Z,26.80
2023-04-07T18:14:20.256Z,26.83
2023-04-07T18:16:54.721Z,26.49
2023-04-07T18:19:33.864Z,26.63
2023-04-07T18:22:30.202Z,26.51
2023-04-07T18:25:11.448Z,26.55
2023-04-07T18:27:52.334Z,26.60
2023-04-07T18:30:30.459Z,26.79
2023-04-07T18:33:14.416Z,26.82
2023-04-07T18:35:58.219Z,26.70
2023-04-07T18:38:42.841Z,26.90
2023-04-07T18:41:19.443Z,26.62
2023-04-07T18:43:57.956Z,26.74
2023-04-07T18:46:40.447Z,26.82
2023-04-07T18:49:28.560Z,26.72
2023-04-07T18:52:06.952Z,26.55
2023-04-07T18:54:48.441Z,26.67
2023-04-07T18:57:27.009Z,26.98
2023-04-07T19:00:05.365Z,26.69
2023-04-07T19:02:49.060Z,26.84
2023-04-07T19:05:26.953Z,26.66
2023-04-07T19:08:08.998Z,26.82
2023-04-07T19:10:47.775Z,26.62
2023-04-07T19:13:30.067Z,26.85
2023-04-07T19:16:20.899Z,26.96
2023-04-07T19:19:01.052Z,26.92
2023-04-07T19:21:45.437Z,26.83
2023-04-07T19:24:28.008Z,26.93
2023-04-07T19:27:12.802Z,26.98
2023-04-07T19:29:56.371Z,27.01
2023-04-07T19:32:38.010Z,26.96
2023-04-07T19:35:24.504Z,26.88
2023-04-07T19:38:05.321Z,26.99
2023-04-07T19:40:48.572Z,26.93
2023-04-07T19:43:27.553Z,26.98
2023-04-07T19:46:08.972Z,26.90
2023-04-07T19:48:47.061Z,27.05
2023-04-07T19:51:32.990Z,27.25
2023-04-07T19:54:17.539Z,27.08
2023-04-07T19:56:50.614Z,27.28
2023-04-07T19:59:37.387Z,26.98
2023-04-07T20:02:18.140Z,27.31
2023-04-07T20:04:53.905Z,27.24
2023-04-07T20:07:39.557Z,27.26
2023-04-07T20:10:25.599Z,27.43
2023-04-07T20:13:10.376Z,27.15
2023-04-07T20:15:46.862Z,27.52
2023-04-07T20:18:31.335Z,27.29
2023-04-07T20:21:13.305Z,27.28
2023-04-07T20:23:57.311Z,27.47
2023-04-07T20:26:37.132Z,27.23
2023-04-07T20:29:18.688Z,27.22
2023-04-07T20:32:11.182Z,27.43
2023-04-07T20:34:52.165Z,27.38
2023-04-07T20:37:30.257Z,27.25
2023-04-07T20:40:09.099Z,27.50
2023-04-07T20:42:53.133Z,27.60
2023-04-07T20:45:31.392Z,27.21
2023-04-07T20:48:09.579Z,27.55
2023-04-07T20:50:55.202Z,27.27
2023-04-07T20:53:38.114Z,27.57
2023-04-07T20:56:16.556Z,27.35
2023-04-07T20:59:04.257Z,27.76
2023-04-07T21:01:40.029Z,27.50
2023-04-07T21:04:28.477Z,27.47
2023-04-07T21:07:13.957Z,27.62
2023-04-07T21:10:01.544Z,27.42
2023-04-07T21:12:42.267Z,27.56
2023-04-07T21:15:23.185Z,27.50
2023-04-07T21:18:12.272Z,27.38
2023-04-07T21:20:54.265Z,27.62
2023-04-07T21:23:31.280Z,27.65
2023-04-07T21:26:10.137Z,27.45
2023-04-07T21:28:56.041Z,27.87
2023-04-07T21:31:36.654Z,27.52
2023-04-07T21:34:20.619Z,27.47
2023-04-07T21:37:02.562Z,27.89
2023-04-07T21:39:46.935Z,27.80
2023-04-07T21:42:33.481Z,28.01
2023-04-07T21:45:08.917Z,27.90
2023-04-07T21:47:47.524Z,27.74
2023-04-07T21:50:27.220Z,27.99
2023-04-07T21:53:11.472Z,27.84
2023-04-07T21:55:50.404Z,27.87
2023-04-07T21:58:26.214Z,27.99
2023-04-07T22:01:02.231Z,28.06
2023-04-07T22:03:46.584Z,27.95
2023-04-07T22:06:34.194Z,28.28
2023-04-07T22:09:16.215Z,28.01
2023-04-07T22:11:54.810Z,27.99
2023-04-07T22:14:50.096Z,28.08
2023-04-07T22:17:30.679Z,28.13
2023-04-07T22:20:12.412Z,28.02
2023-04-07T22:22:57.291Z,27.93
2023-04-07T22:25:40.208Z,28.05
2023-04-07T22:28:19.644Z,27.83
2023-04-07T22:31:03.964Z,28.04
2023-04-07T22:33:51.700Z,28.15
2023-04-07T22:36:28.222Z,28.27
2023-04-07T22:39:11.237Z,28.20
2023-04-07T22:41:53.699Z,28.19
2023-04-07T22:44:35.620Z,28.24
2023-04-07T22:47:17.236Z,28.14
2023-04-07T22:49:58.538Z,28.08
2023-04-07T22:52:36.342Z,28.38
2023-04-07T22:55:21.278Z,28.41
2023-04-07T22:58:00.884Z,28.35
2023-04-07T23:00:45.168Z,28.40
2023-04-07T23:03:32.044Z,28.17
2023-04-07T23:06:15.781Z,28.10
2023-04-07T23:08:52.651Z,28.16
2023-04-07T23:11:36.739Z,28.38
2023-04-07T23:14:24.707Z,28.44
2023-04-07T23:17:14.531Z,28.44
2023-04-07T23:19:58.874Z,28.27
2023-04-07T23:22:37.202Z,28.38
2023-04-07T23:25:14.665Z,28.56
2023-04-07T23:27:59.046Z,28.24
2023-04-07T23:30:39.649Z,28.51
2023-04-07T23:33:21.215Z,28.75
2023-04-07T23:36:06.257Z,28.62
2023-04-07T23:38:51.061Z,28.41
2023-04-07T23:41:41.662Z,28.46
2023-04-07T23:44:31.582Z,28.67
2023-04-07T23:47:12.558Z,28.75
2023-04-07T23:49:52.876Z,28.50
2023-04-07T23:52:37.721Z,28.26
2023-04-07T23:55:15.155Z,28.57
2023-04-07T23:58:01.769Z,28.56
